createdAt,value
2022-09-23T00:00:36.099Z,48.21
2022-09-23T00:02:37.817Z,48.42
2022-09-23T00:04:39.446Z,48.40
2022-09-23T00:06:44.264Z,48.50
2022-09-23T00:08:46.398Z,48.21
2022-09-23T00:10:47.961Z,48.58
2022-09-23T00:12:49.480Z,48.58
2022-09-23T00:14:53.292Z,48.35
2022-09-23T00:16:54.861Z,48.51
2022-09-23T00:18:56.739Z,48.45
2022-09-23T00:21:02.135Z,48.50
2022-09-23T00:23:03.832Z,48.64
2022-09-23T00:25:07.541Z,48.71
2022-09-23T00:27:09.907Z,48.61
2022-09-23T00:29:11.887Z,48.61
2022-09-23T00:31:22.384Z,48.75
2022-09-23T00:33:24.066Z,48.49
2022-09-23T00:35:25.667Z,48.91
2022-09-23T00:37:34.239Z,48.60
2022-09-23T00:39:36.068Z,48.75
2022-09-23T00:41:37.790Z,48.69
2022-09-23T00:43:41.025Z,48.75
2022-09-23T00:45:47.709Z,48.77
2022-09-23T00:48:01.556Z,48.86
2022-09-23T00:50:12.859Z,48.78
2022-09-23T00:52:20.440Z,48.66
2022-09-23T00:54:24.780Z,48.79
2022-09-23T00:56:26.571Z,48.79
2022-09-23T00:58:31.773Z,48.65
2022-09-23T01:00:38.171Z,48.95
2022-09-23T01:02:39.914Z,48.94
2022-09-23T01:04:42.607Z,49.04
2022-09-23T01:06:44.552Z,49.03
2022-09-23T01:08:47.542Z,49.04
2022-09-23T01:11:07.425Z,49.03
2022-09-23T01:13:36.173Z,49.19
2022-09-23T01:15:48.515Z,49.03
2022-09-23T01:17:55.415Z,49.23
2022-09-23T01:20:29.042Z,49.26
2022-09-23T01:22:56.617Z,49.36
2022-09-23T01:25:17.106Z,49.42
2022-09-23T01:27:54.732Z,49.33
2022-09-23T01:30:18.301Z,49.66
2022-09-23T01:32:45.725Z,49.53
2022-09-23T01:34:57.106Z,49.76
2022-09-23T01:37:13.909Z,49.66
2022-09-23T01:39:15.527Z,49.62
2022-09-23T01:41:32.976Z,49.76
2022-09-23T01:43:42.410Z,49.68
2022-09-23T01:45:46.973Z,49.93
2022-09-23T01:47:53.378Z,49.91
2022-09-23T01:50:03.380Z,49.72
2022-09-23T01:52:14.731Z,49.64
2022-09-23T01:54:26.076Z,49.81
2022-09-23T01:57:01.864Z,49.66
2022-09-23T01:59:38.317Z,49.75
2022-09-23T02:01:50.870Z,49.49
2022-09-23T02:04:01.931Z,49.67
2022-09-23T02:06:09.314Z,49.73
2022-09-23T02:08:16.601Z,49.59
2022-09-23T02:10:28.837Z,49.49
2022-09-23T02:12:34.013Z,49.66
2022-09-23T02:14:47.128Z,49.69
2022-09-23T02:16:52.281Z,49.78
2022-09-23T02:19:09.782Z,49.83
2022-09-23T02:21:12.765Z,49.58
2022-09-23T02:23:23.083Z,49.74
2022-09-23T02:25:38.954Z,49.69
2022-09-23T02:28:06.049Z,49.89
2022-09-23T02:30:19.177Z,49.56
2022-09-23T02:32:49.756Z,49.90
2022-09-23T02:35:18.309Z,49.96
2022-09-23T02:37:49.561Z,49.72
2022-09-23T02:39:58.676Z,49.70
2022-09-23T02:42:12.844Z,49.71
2022-09-23T02:44:18.658Z,50.00
2022-09-23T02:46:21.292Z,49.79
2022-09-23T02:48:29.145Z,49.80
2022-09-23T02:50:32.350Z,49.84
2022-09-23T02:52:33.862Z,49.65
2022-09-23T02:54:37.381Z,49.58
2022-09-23T02:56:39.069Z,49.78
2022-09-23T02:58:43.825Z,50.05
2022-09-23T03:01:40.100Z,50.01
2022-09-23T03:04:16.351Z,49.67
2022-09-23T03:06:33.940Z,50.03
2022-09-23T03:08:45.615Z,49.97
2022-09-23T03:11:01.955Z,50.15
2022-09-23T03:13:13.368Z,50.25
2022-09-23T03:15:38.001Z,50.44
2022-09-23T03:17:46.754Z,49.98
2022-09-23T03:19:53.663Z,50.21
2022-09-23T03:22:19.616Z,50.44
2022-09-23T03:24:23.908Z,50.21
2022-09-23T03:26:31.390Z,50.48
2022-09-23T03:28:43.229Z,50.28
2022-09-23T03:30:45.377Z,49.96
2022-09-23T03:32:47.270Z,50.62
2022-09-23T03:34:52.903Z,50.42
2022-09-23T03:37:34.024Z,50.29
2022-09-23T03:39:48.680Z,50.34
2022-09-23T03:41:52.981Z,50.20
2022-09-23T03:44:01.009Z,50.15
2022-09-23T03:46:02.986Z,50.20
2022-09-23T03:48:07.853Z,50.36
2022-09-23T03:50:10.232Z,50.37
2022-09-23T03:52:11.796Z,50.46
2022-09-23T03:54:13.409Z,50.27
2022-09-23T03:56:15.153Z,50.38
2022-09-23T03:58:17.832Z,50.31
2022-09-23T04:00:19.493Z,50.46
2022-09-23T04:02:21.346Z,50.55
2022-09-23T04:04:23.229Z,50.30
2022-09-23T04:06:24.780Z,50.47
2022-09-23T04:08:27.362Z,50.18
2022-09-23T04:10:28.990Z,50.26
2022-09-23T04:12:30.562Z,50.50
2022-09-23T04:14:36.590Z,50.23
2022-09-23T04:16:38.157Z,50.15
2022-09-23T04:18:39.770Z,50.34
2022-09-23T04:20:42.080Z,50.26
2022-09-23T04:22:46.135Z,50.38
2022-09-23T04:24:47.905Z,50.33
2022-09-23T04:26:52.740Z,50.61
2022-09-23T04:28:55.218Z,50.17
2022-09-23T04:30:57.931Z,50.43
2022-09-23T04:32:59.636Z,50.36
2022-09-23T04:35:01.224Z,50.24
2022-09-23T04:37:08.707Z,50.59
2022-09-23T04:39:10.907Z,50.76
2022-09-23T04:41:12.984Z,50.54
2022-09-23T04:43:16.327Z,50.77
2022-09-23T04:45:20.984Z,50.81
2022-09-23T04:47:22.792Z,50.31
2022-09-23T04:49:24.550Z,50.33
2022-09-23T04:51:27.836Z,50.61
2022-09-23T04:53:29.397Z,50.20
2022-09-23T04:55:34.028Z,50.26
2022-09-23T04:57:35.655Z,50.24
2022-09-23T04:59:37.431Z,50.46
2022-09-23T05:01:39.249Z,50.35
2022-09-23T05:03:44.172Z,50.51
2022-09-23T05:05:46.229Z,50.50
2022-09-23T05:07:48.501Z,50.52
2022-09-23T05:09:50.186Z,50.59
2022-09-23T05:11:54.590Z,50.52
2022-09-23T05:13:56.131Z,50.32
2022-09-23T05:16:06.799Z,50.32
2022-09-23T05:18:09.336Z,50.77
2022-09-23T05:20:11.549Z,50.56
2022-09-23T05:22:13.211Z,50.47
2022-09-23T05:24:18.309Z,50.49
2022-09-23T05:26:20.078Z,51.04
2022-09-23T05:28:25.057Z,50.72
2022-09-23T05:30:26.517Z,50.74
2022-09-23T05:32:27.967Z,50.71
2022-09-23T05:34:29.537Z,50.98
2022-09-23T05:36:37.964Z,50.75
2022-09-23T05:38:40.619Z,50.71
2022-09-23T05:40:45.784Z,51.04
2022-09-23T05:42:49.675Z,50.96
2022-09-23T05:44:51.116Z,51.00
2022-09-23T05:46:52.866Z,50.84
2022-09-23T05:49:02.073Z,51.00
2022-09-23T05:51:09.160Z,51.33
2022-09-23T05:53:10.674Z,51.26
2022-09-23T05:55:12.191Z,51.32
2022-09-23T05:57:13.670Z,51.26
2022-09-23T05:59:15.449Z,51.05
2022-09-23T06:01:22.525Z,51.79
2022-09-23T06:03:25.567Z,51.45
2022-09-23T06:05:27.209Z,51.39
2022-09-23T06:07:28.720Z,51.89
2022-09-23T06:09:36.163Z,51.40
2022-09-23T06:11:38.240Z,51.73
2022-09-23T06:13:40.475Z,51.78
2022-09-23T06:15:45.219Z,51.86
2022-09-23T06:17:49.979Z,51.39
2022-09-23T06:19:51.573Z,51.46
2022-09-23T06:21:53.276Z,51.61
2022-09-23T06:23:57.272Z,51.55
2022-09-23T06:26:09.539Z,51.96
2022-09-23T06:28:12.128Z,52.14
2022-09-23T06:30:14.094Z,52.06
2022-09-23T06:32:18.393Z,52.07
2022-09-23T06:34:20.576Z,52.57
2022-09-23T06:36:38.454Z,52.62
2022-09-23T06:38:59.640Z,52.59
2022-09-23T06:41:03.296Z,52.65
2022-09-23T06:43:04.878Z,52.49
2022-09-23T06:45:07.934Z,52.02
2022-09-23T06:47:15.357Z,52.41
2022-09-23T06:49:17.011Z,51.85
2022-09-23T06:51:21.723Z,52.09
2022-09-23T06:53:23.683Z,52.03
2022-09-23T06:55:27.228Z,51.94
2022-09-23T06:57:33.170Z,51.78
2022-09-23T06:59:35.709Z,51.80
2022-09-23T07:01:38.009Z,51.98
2022-09-23T07:03:39.741Z,52.02
2022-09-23T07:05:41.373Z,51.96
2022-09-23T07:07:44.183Z,52.08
2022-09-23T07:09:46.156Z,51.77
2022-09-23T07:11:47.939Z,51.65
2022-09-23T07:13:49.670Z,51.72
2022-09-23T07:15:53.296Z,51.60
2022-09-23T07:17:55.586Z,51.50
2022-09-23T07:19:58.482Z,51.73
2022-09-23T07:22:00.327Z,51.59
2022-09-23T07:24:02.717Z,51.67
2022-09-23T07:26:04.837Z,51.61
2022-09-23T07:28:07.087Z,51.65
2022-09-23T07:30:18.908Z,51.81
2022-09-23T07:32:23.314Z,51.66
2022-09-23T07:34:25.116Z,51.88
2022-09-23T07:36:28.215Z,51.59
2022-09-23T07:38:30.322Z,51.51
2022-09-23T07:40:32.236Z,51.63
2022-09-23T07:42:36.667Z,51.52
2022-09-23T07:44:38.859Z,51.53
2022-09-23T07:46:41.028Z,51.48
2022-09-23T07:48:44.068Z,51.47
2022-09-23T07:50:45.599Z,51.48
2022-09-23T07:52:47.297Z,51.78
2022-09-23T07:54:49.025Z,51.69
2022-09-23T07:56:50.522Z,51.96
2022-09-23T07:59:05.077Z,52.41
2022-09-23T08:01:09.814Z,52.68
2022-09-23T08:03:11.928Z,52.81
2022-09-23T08:05:16.834Z,53.18
2022-09-23T08:07:19.127Z,53.31
2022-09-23T08:09:23.826Z,53.61
2022-09-23T08:11:26.648Z,53.68
2022-09-23T08:13:28.353Z,54.02
2022-09-23T08:15:31.251Z,53.76
2022-09-23T08:17:33.016Z,53.89
2022-09-23T08:19:34.694Z,53.86
2022-09-23T08:21:38.298Z,53.93
2022-09-23T08:23:39.843Z,53.80
2022-09-23T08:25:47.508Z,53.75
2022-09-23T08:27:49.378Z,53.70
2022-09-23T08:29:51.065Z,53.51
2022-09-23T08:31:53.333Z,53.23
2022-09-23T08:33:57.562Z,52.98
2022-09-23T08:36:01.913Z,52.61
2022-09-23T08:38:08.063Z,52.39
2022-09-23T08:40:10.237Z,52.42
2022-09-23T08:42:20.274Z,52.25
2022-09-23T08:44:27.388Z,51.64
2022-09-23T08:46:37.658Z,51.78
2022-09-23T08:48:48.275Z,51.68
2022-09-23T08:50:58.547Z,51.43
2022-09-23T08:53:04.909Z,51.40
2022-09-23T08:55:12.596Z,51.12
2022-09-23T08:57:41.551Z,50.85
2022-09-23T08:59:48.309Z,50.50
2022-09-23T09:02:14.828Z,50.24
2022-09-23T09:04:16.687Z,50.06
2022-09-23T09:06:27.754Z,49.96
2022-09-23T09:08:52.684Z,49.74
2022-09-23T09:10:55.668Z,49.71
2022-09-23T09:13:12.107Z,48.98
2022-09-23T09:15:21.229Z,48.99
2022-09-23T09:18:04.393Z,48.20
2022-09-23T09:20:23.371Z,48.31
2022-09-23T09:22:38.125Z,47.89
2022-09-23T09:24:40.281Z,48.37
2022-09-23T09:26:41.964Z,48.15
2022-09-23T09:29:30.863Z,47.52
2022-09-23T09:31:42.445Z,47.87
2022-09-23T09:34:20.277Z,47.75
2022-09-23T09:36:33.103Z,47.86
2022-09-23T09:38:38.023Z,47.00
2022-09-23T09:40:46.628Z,47.47
2022-09-23T09:42:49.842Z,47.08
2022-09-23T09:44:59.163Z,46.91
2022-09-23T09:47:28.672Z,46.57
2022-09-23T09:49:45.891Z,46.54
2022-09-23T09:51:47.581Z,46.58
2022-09-23T09:53:52.821Z,46.41
2022-09-23T09:56:12.893Z,46.25
2022-09-23T09:58:16.457Z,46.16
2022-09-23T10:00:25.775Z,45.74
2022-09-23T10:02:33.904Z,45.24
2022-09-23T10:04:35.886Z,45.45
2022-09-23T10:06:37.509Z,45.71
2022-09-23T10:08:39.247Z,45.24
2022-09-23T10:10:58.410Z,44.54
2022-09-23T10:13:15.200Z,44.71
2022-09-23T10:15:33.273Z,44.45
2022-09-23T10:17:38.486Z,44.73
2022-09-23T10:19:47.069Z,44.63
2022-09-23T10:21:54.508Z,44.81
2022-09-23T10:23:58.525Z,44.36
2022-09-23T10:26:05.103Z,44.24
2022-09-23T10:28:46.581Z,43.53
2022-09-23T10:31:08.765Z,43.43
2022-09-23T10:33:26.907Z,43.65
2022-09-23T10:35:30.339Z,44.04
2022-09-23T10:37:45.323Z,43.55
2022-09-23T10:40:05.723Z,43.79
2022-09-23T10:42:47.327Z,43.03
2022-09-23T10:45:29.988Z,43.32
2022-09-23T10:48:03.154Z,42.54
2022-09-23T10:50:23.089Z,43.01
2022-09-23T10:52:59.167Z,42.17
2022-09-23T10:55:27.725Z,42.00
2022-09-23T10:57:55.135Z,42.04
2022-09-23T11:00:10.423Z,41.78
2022-09-23T11:02:34.140Z,41.59
2022-09-23T11:04:55.254Z,40.84
2022-09-23T11:07:14.195Z,40.28
2022-09-23T11:09:23.012Z,40.08
2022-09-23T11:11:46.402Z,39.60
2022-09-23T11:14:25.750Z,39.66
2022-09-23T11:16:59.821Z,39.74
2022-09-23T11:19:21.900Z,39.91
2022-09-23T11:22:05.360Z,39.56
2022-09-23T11:24:35.576Z,39.88
2022-09-23T11:27:13.233Z,39.67
2022-09-23T11:29:33.783Z,39.84
2022-09-23T11:32:02.886Z,39.63
2022-09-23T11:34:25.092Z,39.47
2022-09-23T11:36:34.685Z,40.00
2022-09-23T11:38:42.832Z,39.51
2022-09-23T11:40:54.708Z,39.10
2022-09-23T11:43:01.389Z,39.06
2022-09-23T11:45:37.715Z,39.07
2022-09-23T11:47:53.042Z,38.51
2022-09-23T11:50:05.089Z,38.49
2022-09-23T11:52:28.707Z,38.83
2022-09-23T11:54:53.017Z,38.42
2022-09-23T11:56:59.642Z,38.81
2022-09-23T11:59:10.386Z,38.44
2022-09-23T12:01:35.660Z,38.54
2022-09-23T12:04:10.217Z,38.46
2022-09-23T12:06:26.206Z,38.07
2022-09-23T12:08:38.967Z,38.41
2022-09-23T12:10:45.947Z,37.78
2022-09-23T12:12:56.503Z,37.52
2022-09-23T12:15:04.070Z,37.99
2022-09-23T12:17:27.545Z,37.63
2022-09-23T12:19:51.690Z,37.71
2022-09-23T12:22:24.824Z,37.14
2022-09-23T12:24:43.331Z,37.77
2022-09-23T12:26:50.213Z,37.74
2022-09-23T12:28:58.703Z,37.04
2022-09-23T12:31:03.358Z,37.40
2022-09-23T12:33:22.692Z,37.41
2022-09-23T12:35:35.611Z,37.40
2022-09-23T12:37:40.071Z,37.38
2022-09-23T12:39:46.760Z,37.42
2022-09-23T12:41:54.373Z,37.43
2022-09-23T12:44:13.513Z,37.42
2022-09-23T12:46:21.899Z,37.44
2022-09-23T12:48:43.250Z,37.48
2022-09-23T12:50:52.352Z,37.55
2022-09-23T12:52:57.215Z,37.85
2022-09-23T12:55:27.444Z,37.08
2022-09-23T12:57:34.990Z,37.13
2022-09-23T12:59:52.485Z,37.28
2022-09-23T13:01:55.219Z,37.31
2022-09-23T13:04:17.497Z,37.23
2022-09-23T13:06:37.774Z,36.91
2022-09-23T13:08:41.698Z,36.78
2022-09-23T13:10:49.757Z,36.52
2022-09-23T13:12:55.810Z,36.56
2022-09-23T13:15:03.470Z,36.32
2022-09-23T13:17:05.355Z,35.47
2022-09-23T13:19:26.952Z,35.42
2022-09-23T13:21:45.099Z,35.67
2022-09-23T13:24:20.673Z,35.13
2022-09-23T13:26:25.518Z,35.86
2022-09-23T13:28:28.732Z,35.67
2022-09-23T13:30:30.435Z,35.52
2022-09-23T13:32:46.192Z,35.63
2022-09-23T13:35:18.918Z,35.00
2022-09-23T13:37:24.892Z,35.38
2022-09-23T13:39:28.781Z,35.28
2022-09-23T13:41:30.533Z,34.97
2022-09-23T13:43:41.366Z,34.28
2022-09-23T13:45:43.717Z,34.69
2022-09-23T13:47:48.441Z,34.46
2022-09-23T13:49:50.703Z,34.13
2022-09-23T13:51:54.162Z,34.51
2022-09-23T13:53:57.789Z,34.09
2022-09-23T13:56:14.325Z,33.74
2022-09-23T13:58:20.845Z,33.79
2022-09-23T14:00:23.851Z,33.77
2022-09-23T14:02:25.858Z,33.85
2022-09-23T14:04:27.559Z,33.53
2022-09-23T14:06:39.532Z,33.56
2022-09-23T14:08:50.741Z,33.15
2022-09-23T14:10:53.169Z,33.55
2022-09-23T14:12:56.418Z,33.62
2022-09-23T14:14:58.232Z,33.58
2022-09-23T14:17:00.556Z,33.72
2022-09-23T14:19:02.532Z,33.92
2022-09-23T14:21:04.488Z,33.91
2022-09-23T14:23:10.853Z,33.65
2022-09-23T14:25:14.683Z,33.64
2022-09-23T14:27:23.948Z,33.72
2022-09-23T14:29:28.716Z,33.42
2022-09-23T14:31:30.908Z,34.02
2022-09-23T14:33:34.340Z,33.64
2022-09-23T14:35:44.851Z,33.27
2022-09-23T14:38:07.933Z,33.40
2022-09-23T14:40:16.784Z,33.24
2022-09-23T14:42:19.802Z,33.52
2022-09-23T14:44:25.017Z,33.63
2022-09-23T14:46:29.649Z,33.92
2022-09-23T14:48:34.175Z,33.76
2022-09-23T14:50:36.978Z,33.99
2022-09-23T14:52:48.909Z,33.74
2022-09-23T14:54:50.884Z,34.16
2022-09-23T14:56:54.749Z,33.90
2022-09-23T14:59:00.186Z,33.72
2022-09-23T15:01:02.458Z,34.00
2022-09-23T15:03:15.353Z,34.22
2022-09-23T15:05:32.091Z,34.12
2022-09-23T15:07:37.917Z,34.40
2022-09-23T15:09:42.179Z,33.83
2022-09-23T15:11:44.391Z,34.26
2022-09-23T15:13:50.665Z,34.19
2022-09-23T15:15:54.555Z,34.56
2022-09-23T15:18:03.973Z,34.25
2022-09-23T15:20:14.304Z,34.18
2022-09-23T15:22:16.918Z,34.40
2022-09-23T15:24:42.823Z,34.36
2022-09-23T15:26:49.996Z,34.69
2022-09-23T15:28:54.187Z,34.62
2022-09-23T15:30:56.464Z,34.76
2022-09-23T15:32:58.238Z,34.59
2022-09-23T15:34:59.873Z,34.83
2022-09-23T15:37:01.558Z,34.63
2022-09-23T15:39:05.965Z,34.61
2022-09-23T15:41:07.583Z,34.97
2022-09-23T15:43:21.854Z,34.37
2022-09-23T15:45:36.736Z,34.68
2022-09-23T15:47:38.242Z,34.85
2022-09-23T15:49:39.979Z,34.93
2022-09-23T15:51:42.942Z,34.81
2022-09-23T15:53:44.728Z,35.01
2022-09-23T15:55:46.392Z,35.13
2022-09-23T15:57:48.681Z,35.26
2022-09-23T15:59:50.462Z,34.99
2022-09-23T16:01:53.470Z,34.93
2022-09-23T16:03:55.848Z,35.15
2022-09-23T16:06:01.081Z,35.45
2022-09-23T16:08:09.173Z,35.47
2022-09-23T16:10:10.883Z,35.30
2022-09-23T16:12:12.600Z,35.19
2022-09-23T16:14:16.529Z,35.52
2022-09-23T16:16:21.263Z,35.71
2022-09-23T16:18:23.024Z,35.52
2022-09-23T16:20:29.131Z,35.51
2022-09-23T16:22:31.027Z,35.89
2022-09-23T16:24:32.912Z,35.96
2022-09-23T16:26:35.963Z,36.02
2022-09-23T16:28:37.831Z,35.85
2022-09-23T16:30:39.380Z,35.98
2022-09-23T16:32:41.141Z,36.05
2022-09-23T16:34:53.286Z,36.17
2022-09-23T16:36:54.951Z,35.98
2022-09-23T16:38:57.339Z,36.43
2022-09-23T16:41:00.591Z,36.51
2022-09-23T16:43:05.369Z,36.84
2022-09-23T16:45:07.724Z,36.81
2022-09-23T16:47:09.710Z,37.07
2022-09-23T16:49:12.182Z,36.99
2022-09-23T16:51:20.524Z,37.05
2022-09-23T16:53:23.670Z,37.27
2022-09-23T16:55:29.875Z,37.58
2022-09-23T16:57:31.442Z,37.67
2022-09-23T16:59:53.133Z,37.91
2022-09-23T17:02:13.180Z,37.71
2022-09-23T17:04:16.992Z,37.88
2022-09-23T17:06:19.337Z,38.05
2022-09-23T17:08:20.994Z,38.07
2022-09-23T17:10:22.577Z,38.34
2022-09-23T17:12:32.575Z,38.40
2022-09-23T17:14:34.668Z,38.18
2022-09-23T17:16:36.356Z,38.34
2022-09-23T17:18:41.136Z,38.38
2022-09-23T17:20:42.839Z,38.29
2022-09-23T17:22:44.413Z,38.70
2022-09-23T17:24:45.985Z,38.61
2022-09-23T17:26:53.266Z,38.64
2022-09-23T17:28:56.572Z,38.46
2022-09-23T17:31:00.084Z,38.82
2022-09-23T17:33:01.615Z,38.76
2022-09-23T17:35:06.820Z,38.74
2022-09-23T17:37:08.469Z,39.05
2022-09-23T17:39:10.839Z,39.07
2022-09-23T17:41:14.315Z,39.01
2022-09-23T17:43:20.185Z,39.19
2022-09-23T17:45:21.748Z,38.98
2022-09-23T17:47:23.432Z,39.01
2022-09-23T17:49:25.186Z,39.32
2022-09-23T17:51:27.117Z,39.54
2022-09-23T17:53:35.062Z,39.45
2022-09-23T17:55:37.078Z,39.63
2022-09-23T17:57:38.638Z,39.33
2022-09-23T17:59:40.373Z,39.51
2022-09-23T18:01:41.898Z,39.82
2022-09-23T18:03:43.920Z,39.50
2022-09-23T18:05:46.440Z,39.62
2022-09-23T18:07:48.088Z,39.78
2022-09-23T18:09:49.593Z,39.64
2022-09-23T18:11:51.299Z,39.83
2022-09-23T18:13:57.995Z,39.86
2022-09-23T18:16:02.358Z,40.07
2022-09-23T18:18:05.668Z,40.09
2022-09-23T18:20:08.006Z,39.84
2022-09-23T18:22:09.459Z,40.22
2022-09-23T18:26:34.367Z,40.16
2022-09-23T18:28:35.965Z,40.38
2022-09-23T18:30:37.648Z,40.40
2022-09-23T18:32:39.570Z,40.52
2022-09-23T18:34:44.099Z,40.45
2022-09-23T18:36:45.787Z,40.46
2022-09-23T18:38:51.049Z,40.31
2022-09-23T18:40:56.987Z,40.47
2022-09-23T18:42:58.575Z,40.77
2022-09-23T18:45:00.260Z,40.53
2022-09-23T18:47:01.856Z,40.76
2022-09-23T18:49:22.272Z,40.88
2022-09-23T18:51:26.127Z,40.84
2022-09-23T18:53:27.623Z,40.80
2022-09-23T18:55:29.063Z,40.93
2022-09-23T18:57:30.926Z,41.20
2022-09-23T18:59:36.935Z,41.27
2022-09-23T19:01:38.888Z,41.15
2022-09-23T19:03:41.108Z,41.32
2022-09-23T19:05:42.532Z,41.18
2022-09-23T19:07:44.223Z,41.32
2022-09-23T19:09:45.938Z,41.58
2022-09-23T19:11:52.112Z,41.64
2022-09-23T19:14:02.527Z,41.73
2022-09-23T19:16:14.878Z,41.59
2022-09-23T19:18:17.469Z,41.76
2022-09-23T19:20:19.164Z,41.78
2022-09-23T19:22:21.211Z,42.08
2022-09-23T19:24:22.899Z,41.95
2022-09-23T19:26:27.546Z,42.00
2022-09-23T19:28:29.341Z,42.03
2022-09-23T19:30:30.953Z,42.17
2022-09-23T19:32:34.716Z,42.21
2022-09-23T19:34:37.911Z,42.30
2022-09-23T19:36:42.224Z,42.25
2022-09-23T19:38:44.405Z,42.32
2022-09-23T19:40:49.921Z,42.49
2022-09-23T19:42:54.060Z,42.49
2022-09-23T19:44:55.767Z,42.58
2022-09-23T19:46:57.801Z,42.64
2022-09-23T19:49:00.575Z,42.67
2022-09-23T19:51:02.669Z,42.72
2022-09-23T19:53:05.682Z,42.80
2022-09-23T19:55:07.833Z,42.85
2022-09-23T19:57:09.530Z,42.86
2022-09-23T19:59:14.180Z,42.85
2022-09-23T20:01:22.998Z,42.89
2022-09-23T20:03:26.052Z,43.01
2022-09-23T20:05:35.636Z,43.02
2022-09-23T20:07:40.245Z,43.20
2022-09-23T20:09:41.948Z,43.26
2022-09-23T20:11:44.265Z,43.21
2022-09-23T20:13:47.555Z,43.28
2022-09-23T20:15:49.362Z,43.29
2022-09-23T20:17:51.654Z,43.26
2022-09-23T20:19:57.829Z,43.53
2022-09-23T20:22:19.253Z,43.59
2022-09-23T20:24:20.861Z,43.49
2022-09-23T20:26:41.040Z,43.65
2022-09-23T20:28:42.839Z,43.62
2022-09-23T20:30:44.453Z,43.69
2022-09-23T20:32:48.119Z,43.71
2022-09-23T20:34:49.879Z,43.88
2022-09-23T20:36:51.355Z,43.89
2022-09-23T20:39:01.991Z,44.09
2022-09-23T20:41:03.602Z,44.22
2022-09-23T20:43:05.303Z,44.33
2022-09-23T20:45:07.572Z,44.30
2022-09-23T20:47:14.012Z,44.33
2022-09-23T20:49:16.712Z,44.17
2022-09-23T20:51:20.104Z,44.34
2022-09-23T20:53:24.486Z,44.33
2022-09-23T20:55:26.161Z,44.42
2022-09-23T20:57:29.743Z,44.40
2022-09-23T20:59:31.812Z,44.39
2022-09-23T21:01:37.314Z,44.44
2022-09-23T21:03:41.219Z,44.57
2022-09-23T21:05:42.806Z,44.65
2022-09-23T21:07:47.398Z,44.88
2022-09-23T21:09:48.971Z,44.56
2022-09-23T21:11:52.207Z,44.84
2022-09-23T21:14:03.460Z,44.79
2022-09-23T21:16:11.390Z,45.40
2022-09-23T21:18:16.315Z,44.79
2022-09-23T21:20:21.449Z,44.90
2022-09-23T21:22:23.455Z,44.96
2022-09-23T21:25:00.397Z,45.21
2022-09-23T21:26:50.396Z,45.12
2022-09-23T21:28:55.543Z,45.07
2022-09-23T21:31:12.187Z,45.35
2022-09-23T21:33:14.566Z,45.26
2022-09-23T21:35:18.924Z,45.14
2022-09-23T21:37:21.609Z,45.12
2022-09-23T21:39:23.513Z,45.26
2022-09-23T21:41:25.603Z,45.36
2022-09-23T21:43:31.613Z,45.25
2022-09-23T21:45:33.878Z,45.35
2022-09-23T21:47:35.369Z,45.19
2022-09-23T21:49:36.954Z,45.21
2022-09-23T21:51:42.949Z,45.56
2022-09-23T21:53:45.240Z,45.52
2022-09-23T21:55:48.693Z,45.50
2022-09-23T21:57:51.562Z,45.33
2022-09-23T21:59:54.241Z,45.54
2022-09-23T22:01:55.791Z,45.49
2022-09-23T22:04:01.868Z,45.56
2022-09-23T22:06:05.059Z,45.52
2022-09-23T22:08:11.959Z,45.72
2022-09-23T22:10:13.600Z,45.77
2022-09-23T22:12:21.197Z,45.79
2022-09-23T22:14:26.040Z,45.73
2022-09-23T22:16:29.215Z,46.08
2022-09-23T22:18:30.963Z,45.99
2022-09-23T22:20:33.965Z,45.88
2022-09-23T22:22:35.927Z,45.63
2022-09-23T22:24:37.554Z,45.82
2022-09-23T22:26:41.735Z,46.14
2022-09-23T22:29:02.261Z,46.14
2022-09-23T22:31:22.681Z,46.04
2022-09-23T22:33:24.258Z,46.11
2022-09-23T22:35:26.005Z,46.05
2022-09-23T22:37:30.458Z,46.15
2022-09-23T22:39:34.428Z,46.11
2022-09-23T22:41:36.455Z,46.29
2022-09-23T22:43:38.332Z,46.14
2022-09-23T22:45:40.048Z,45.94
2022-09-23T22:47:47.034Z,45.98
2022-09-23T22:49:55.573Z,46.18
2022-09-23T22:51:57.297Z,46.19
2022-09-23T22:53:58.842Z,46.07
2022-09-23T22:56:01.251Z,46.33
2022-09-23T22:58:21.201Z,46.08
2022-09-23T23:00:24.382Z,46.11
2022-09-23T23:02:27.021Z,46.08
2022-09-23T23:04:29.993Z,46.11
2022-09-23T23:06:36.683Z,46.39
2022-09-23T23:08:38.742Z,45.95
2022-09-23T23:10:42.181Z,46.12
2022-09-23T23:12:46.866Z,46.03
2022-09-23T23:14:49.513Z,46.38
2022-09-23T23:16:51.046Z,46.35
2022-09-23T23:18:53.810Z,46.31
2022-09-23T23:20:57.350Z,46.33
2022-09-23T23:23:02.124Z,46.33
2022-09-23T23:25:06.534Z,46.51
2022-09-23T23:27:08.072Z,46.42
2022-09-23T23:29:11.007Z,46.41
2022-09-23T23:31:15.885Z,46.40
2022-09-23T23:33:17.429Z,46.54
2022-09-23T23:35:19.000Z,46.43
2022-09-23T23:37:21.171Z,46.50
2022-09-23T23:39:26.746Z,46.57
2022-09-23T23:41:28.888Z,46.55
2022-09-23T23:43:31.964Z,46.68
2022-09-23T23:45:33.626Z,46.48
2022-09-23T23:47:35.573Z,46.62
2022-09-23T23:49:37.122Z,46.63
2022-09-23T23:51:41.747Z,46.69
2022-09-23T23:53:43.898Z,46.72
2022-09-23T23:55:45.855Z,46.71
2022-09-23T23:57:51.346Z,46.66
2022-09-23T23:59:55.945Z,46.77
